sensor_id;sensor_type;location;lat;lon;timestamp;temperature;humidity
41644;DHT22;44236;48.098;11.582;2023-02-24T00:01:26;19.70;43.80
41644;DHT22;44236;48.098;11.582;2023-02-24T00:03:54;19.70;43.80
41644;DHT22;44236;48.098;11.582;2023-02-24T00:06:22;19.60;43.70
41644;DHT22;44236;48.098;11.582;2023-02-24T00:08:47;19.60;43.60
41644;DHT22;44236;48.098;11.582;2023-02-24T00:11:15;19.60;43.70
41644;DHT22;44236;48.098;11.582;2023-02-24T00:13:44;19.60;43.70
41644;DHT22;44236;48.098;11.582;2023-02-24T00:16:16;19.60;43.70
41644;DHT22;44236;48.098;11.582;2023-02-24T00:18:43;19.60;43.70
41644;DHT22;44236;48.098;11.582;2023-02-24T00:21:15;19.50;43.60
41644;DHT22;44236;48.098;11.582;2023-02-24T00:23:43;19.50;43.60
41644;DHT22;44236;48.098;11.582;2023-02-24T00:26:12;19.50;43.70
41644;DHT22;44236;48.098;11.582;2023-02-24T00:28:38;19.50;43.70
41644;DHT22;44236;48.098;11.582;2023-02-24T00:31:06;19.50;43.70
41644;DHT22;44236;48.098;11.582;2023-02-24T00:33:33;19.50;44.10
41644;DHT22;44236;48.098;11.582;2023-02-24T00:36:09;19.50;43.70
41644;DHT22;44236;48.098;11.582;2023-02-24T00:38:39;19.50;43.70
41644;DHT22;44236;48.098;11.582;2023-02-24T00:41:14;19.40;43.50
41644;DHT22;44236;48.098;11.582;2023-02-24T00:43:44;19.50;43.70
41644;DHT22;44236;48.098;11.582;2023-02-24T00:46:18;19.40;43.70
41644;DHT22;44236;48.098;11.582;2023-02-24T00:48:48;19.40;43.70
41644;DHT22;44236;48.098;11.582;2023-02-24T00:51:16;19.40;43.60
41644;DHT22;44236;48.098;11.582;2023-02-24T00:53:48;19.40;43.60
41644;DHT22;44236;48.098;11.582;2023-02-24T00:56:14;19.40;43.70
41644;DHT22;44236;48.098;11.582;2023-02-24T00:58:41;19.40;43.60
41644;DHT22;44236;48.098;11.582;2023-02-24T01:01:14;19.40;43.60
41644;DHT22;44236;48.098;11.582;2023-02-24T01:03:45;19.30;43.60
41644;DHT22;44236;48.098;11.582;2023-02-24T01:06:12;19.30;43.60
41644;DHT22;44236;48.098;11.582;2023-02-24T01:08:41;19.30;43.60
41644;DHT22;44236;48.098;11.582;2023-02-24T01:11:16;19.30;43.50
41644;DHT22;44236;48.098;11.582;2023-02-24T01:14:23;19.30;43.60
41644;DHT22;44236;48.098;11.582;2023-02-24T01:16:49;19.30;43.50
41644;DHT22;44236;48.098;11.582;2023-02-24T01:19:21;19.30;43.50
41644;DHT22;44236;48.098;11.582;2023-02-24T01:21:47;19.30;43.70
41644;DHT22;44236;48.098;11.582;2023-02-24T01:24:17;19.30;43.60
41644;DHT22;44236;48.098;11.582;2023-02-24T01:26:43;19.20;43.60
41644;DHT22;44236;48.098;11.582;2023-02-24T01:29:08;19.20;43.70
41644;DHT22;44236;48.098;11.582;2023-02-24T01:31:36;19.20;43.60
41644;DHT22;44236;48.098;11.582;2023-02-24T01:34:03;19.20;43.60
41644;DHT22;44236;48.098;11.582;2023-02-24T01:36:31;19.20;43.50
41644;DHT22;44236;48.098;11.582;2023-02-24T01:39:00;19.20;43.50
41644;DHT22;44236;48.098;11.582;2023-02-24T01:41:26;19.20;43.50
41644;DHT22;44236;48.098;11.582;2023-02-24T01:44:56;19.20;43.60
41644;DHT22;44236;48.098;11.582;2023-02-24T01:46:54;19.20;43.50
41644;DHT22;44236;48.098;11.582;2023-02-24T01:49:38;19.10;43.50
41644;DHT22;44236;48.098;11.582;2023-02-24T01:52:12;19.10;43.40
41644;DHT22;44236;48.098;11.582;2023-02-24T01:54:43;19.10;43.60
41644;DHT22;44236;48.098;11.582;2023-02-24T01:57:13;19.10;43.50
41644;DHT22;44236;48.098;11.582;2023-02-24T01:59:43;19.10;43.60
41644;DHT22;44236;48.098;11.582;2023-02-24T02:02:10;19.10;43.40
41644;DHT22;44236;48.098;11.582;2023-02-24T02:04:57;19.10;43.60
41644;DHT22;44236;48.098;11.582;2023-02-24T02:07:26;19.10;43.50
41644;DHT22;44236;48.098;11.582;2023-02-24T02:09:53;19.10;43.50
41644;DHT22;44236;48.098;11.582;2023-02-24T02:12:20;19.10;43.10
41644;DHT22;44236;48.098;11.582;2023-02-24T02:14:50;19.10;43.40
41644;DHT22;44236;48.098;11.582;2023-02-24T02:17:47;19.00;43.40
41644;DHT22;44236;48.098;11.582;2023-02-24T02:37:17;18.90;43.30
41644;DHT22;44236;48.098;11.582;2023-02-24T02:40:02;18.90;43.60
41644;DHT22;44236;48.098;11.582;2023-02-24T02:45:19;18.90;43.40
41644;DHT22;44236;48.098;11.582;2023-02-24T02:48:07;18.90;43.30
41644;DHT22;44236;48.098;11.582;2023-02-24T02:50:47;18.90;43.40
41644;DHT22;44236;48.098;11.582;2023-02-24T02:53:27;18.90;43.40
41644;DHT22;44236;48.098;11.582;2023-02-24T02:56:08;18.90;43.40
41644;DHT22;44236;48.098;11.582;2023-02-24T02:58:39;18.80;43.90
41644;DHT22;44236;48.098;11.582;2023-02-24T03:01:08;18.90;43.50
41644;DHT22;44236;48.098;11.582;2023-02-24T03:03:41;18.80;43.40
41644;DHT22;44236;48.098;11.582;2023-02-24T03:06:26;18.90;43.30
41644;DHT22;44236;48.098;11.582;2023-02-24T03:09:02;18.80;43.30
41644;DHT22;44236;48.098;11.582;2023-02-24T03:11:40;18.80;43.30
41644;DHT22;44236;48.098;11.582;2023-02-24T03:14:07;18.80;43.40
41644;DHT22;44236;48.098;11.582;2023-02-24T03:16:39;18.80;43.20
41644;DHT22;44236;48.098;11.582;2023-02-24T03:19:07;18.80;43.40
41644;DHT22;44236;48.098;11.582;2023-02-24T03:21:43;18.80;43.20
41644;DHT22;44236;48.098;11.582;2023-02-24T03:24:11;18.80;43.20
41644;DHT22;44236;48.098;11.582;2023-02-24T03:26:49;18.70;43.20
41644;DHT22;44236;48.098;11.582;2023-02-24T03:29:20;18.70;43.10
41644;DHT22;44236;48.098;11.582;2023-02-24T03:31:59;18.70;43.30
41644;DHT22;44236;48.098;11.582;2023-02-24T03:34:39;18.70;43.30
41644;DHT22;44236;48.098;11.582;2023-02-24T03:37:08;18.70;43.30
41644;DHT22;44236;48.098;11.582;2023-02-24T03:39:34;18.70;43.20
41644;DHT22;44236;48.098;11.582;2023-02-24T03:42:15;18.70;43.10
41644;DHT22;44236;48.098;11.582;2023-02-24T03:44:42;18.70;43.30
41644;DHT22;44236;48.098;11.582;2023-02-24T03:47:10;18.70;43.30
41644;DHT22;44236;48.098;11.582;2023-02-24T03:49:35;18.60;43.20
41644;DHT22;44236;48.098;11.582;2023-02-24T04:00:49;18.60;43.20
41644;DHT22;44236;48.098;11.582;2023-02-24T04:06:22;18.60;43.30
41644;DHT22;44236;48.098;11.582;2023-02-24T04:09:00;18.60;43.30
41644;DHT22;44236;48.098;11.582;2023-02-24T04:14:44;18.60;43.20
41644;DHT22;44236;48.098;11.582;2023-02-24T04:17:22;18.60;43.20
41644;DHT22;44236;48.098;11.582;2023-02-24T04:19:52;18.60;43.30
41644;DHT22;44236;48.098;11.582;2023-02-24T04:22:20;18.50;43.10
41644;DHT22;44236;48.098;11.582;2023-02-24T04:24:50;18.50;43.20
41644;DHT22;44236;48.098;11.582;2023-02-24T04:27:18;18.50;43.10
41644;DHT22;44236;48.098;11.582;2023-02-24T04:29:52;18.50;43.20
41644;DHT22;44236;48.098;11.582;2023-02-24T04:32:25;18.50;43.10
41644;DHT22;44236;48.098;11.582;2023-02-24T04:34:51;18.50;43.20
41644;DHT22;44236;48.098;11.582;2023-02-24T04:37:18;18.50;43.20
41644;DHT22;44236;48.098;11.582;2023-02-24T04:39:48;18.50;43.30
41644;DHT22;44236;48.098;11.582;2023-02-24T04:42:15;18.40;43.10
41644;DHT22;44236;48.098;11.582;2023-02-24T04:44:41;18.40;43.20
41644;DHT22;44236;48.098;11.582;2023-02-24T04:47:09;18.40;43.30
41644;DHT22;44236;48.098;11.582;2023-02-24T04:49:35;18.40;43.00
41644;DHT22;44236;48.098;11.582;2023-02-24T04:52:00;18.50;43.20
41644;DHT22;44236;48.098;11.582;2023-02-24T04:54:26;18.40;43.20
41644;DHT22;44236;48.098;11.582;2023-02-24T04:56:54;18.40;43.20
41644;DHT22;44236;48.098;11.582;2023-02-24T04:59:21;18.50;43.40
41644;DHT22;44236;48.098;11.582;2023-02-24T05:01:47;18.40;43.30
41644;DHT22;44236;48.098;11.582;2023-02-24T05:04:16;18.40;43.30
41644;DHT22;44236;48.098;11.582;2023-02-24T05:06:43;18.40;43.20
41644;DHT22;44236;48.098;11.582;2023-02-24T05:09:13;18.50;43.20
41644;DHT22;44236;48.098;11.582;2023-02-24T05:11:44;18.40;43.30
41644;DHT22;44236;48.098;11.582;2023-02-24T05:14:10;18.40;43.20
41644;DHT22;44236;48.098;11.582;2023-02-24T05:16:43;18.40;43.20
41644;DHT22;44236;48.098;11.582;2023-02-24T05:19:10;18.40;43.30
41644;DHT22;44236;48.098;11.582;2023-02-24T05:21:54;18.40;43.20
41644;DHT22;44236;48.098;11.582;2023-02-24T05:24:23;18.40;43.30
41644;DHT22;44236;48.098;11.582;2023-02-24T05:26:50;18.40;43.20
41644;DHT22;44236;48.098;11.582;2023-02-24T05:29:23;18.40;43.30
41644;DHT22;44236;48.098;11.582;2023-02-24T05:31:50;18.40;43.20
41644;DHT22;44236;48.098;11.582;2023-02-24T05:34:18;18.40;43.10
41644;DHT22;44236;48.098;11.582;2023-02-24T05:36:44;18.40;43.30
41644;DHT22;44236;48.098;11.582;2023-02-24T05:39:11;18.40;43.30
41644;DHT22;44236;48.098;11.582;2023-02-24T05:41:41;18.50;43.30
41644;DHT22;44236;48.098;11.582;2023-02-24T05:44:18;18.50;43.20
41644;DHT22;44236;48.098;11.582;2023-02-24T05:46:50;18.50;43.10
41644;DHT22;44236;48.098;11.582;2023-02-24T05:49:26;18.60;43.10
41644;DHT22;44236;48.098;11.582;2023-02-24T05:51:56;18.60;43.00
41644;DHT22;44236;48.098;11.582;2023-02-24T05:54:27;18.70;43.00
41644;DHT22;44236;48.098;11.582;2023-02-24T05:56:54;18.70;43.00
41644;DHT22;44236;48.098;11.582;2023-02-24T05:59:21;18.70;42.90
41644;DHT22;44236;48.098;11.582;2023-02-24T06:01:48;18.80;43.00
41644;DHT22;44236;48.098;11.582;2023-02-24T06:04:17;18.80;43.00
41644;DHT22;44236;48.098;11.582;2023-02-24T06:06:52;18.80;42.90
41644;DHT22;44236;48.098;11.582;2023-02-24T06:09:19;18.90;42.90
41644;DHT22;44236;48.098;11.582;2023-02-24T06:11:48;18.90;42.90
41644;DHT22;44236;48.098;11.582;2023-02-24T06:14:14;18.90;43.00
41644;DHT22;44236;48.098;11.582;2023-02-24T06:16:41;18.90;43.00
41644;DHT22;44236;48.098;11.582;2023-02-24T06:19:08;19.00;43.00
41644;DHT22;44236;48.098;11.582;2023-02-24T06:21:35;18.90;43.00
41644;DHT22;44236;48.098;11.582;2023-02-24T06:24:02;19.00;42.80
41644;DHT22;44236;48.098;11.582;2023-02-24T06:26:27;19.00;42.60
41644;DHT22;44236;48.098;11.582;2023-02-24T06:28:55;19.10;42.80
41644;DHT22;44236;48.098;11.582;2023-02-24T06:31:22;19.00;42.60
41644;DHT22;44236;48.098;11.582;2023-02-24T06:33:47;19.10;42.60
41644;DHT22;44236;48.098;11.582;2023-02-24T06:36:14;19.10;42.10
41644;DHT22;44236;48.098;11.582;2023-02-24T06:38:40;19.10;41.80
41644;DHT22;44236;48.098;11.582;2023-02-24T06:41:07;19.20;42.00
41644;DHT22;44236;48.098;11.582;2023-02-24T06:46:04;19.20;42.00
41644;DHT22;44236;48.098;11.582;2023-02-24T06:48:30;19.20;42.30
41644;DHT22;44236;48.098;11.582;2023-02-24T06:51:02;19.20;42.40
41644;DHT22;44236;48.098;11.582;2023-02-24T06:53:27;19.20;42.30
41644;DHT22;44236;48.098;11.582;2023-02-24T06:55:53;19.20;41.90
41644;DHT22;44236;48.098;11.582;2023-02-24T06:58:20;19.30;42.00
41644;DHT22;44236;48.098;11.582;2023-02-24T07:00:48;19.30;42.00
41644;DHT22;44236;48.098;11.582;2023-02-24T07:03:25;19.30;42.60
41644;DHT22;44236;48.098;11.582;2023-02-24T07:06:07;19.30;41.90
41644;DHT22;44236;48.098;11.582;2023-02-24T07:08:49;19.30;41.70
41644;DHT22;44236;48.098;11.582;2023-02-24T07:11:15;19.40;41.60
41644;DHT22;44236;48.098;11.582;2023-02-24T07:13:45;19.40;41.70
41644;DHT22;44236;48.098;11.582;2023-02-24T07:16:18;19.40;42.50
41644;DHT22;44236;48.098;11.582;2023-02-24T07:18:45;18.80;40.00
41644;DHT22;44236;48.098;11.582;2023-02-24T07:21:15;18.20;40.80
41644;DHT22;44236;48.098;11.582;2023-02-24T07:23:44;18.30;42.00
41644;DHT22;44236;48.098;11.582;2023-02-24T07:26:17;18.50;42.30
41644;DHT22;44236;48.098;11.582;2023-02-24T07:28:44;18.70;42.30
41644;DHT22;44236;48.098;11.582;2023-02-24T07:31:14;18.90;42.00
41644;DHT22;44236;48.098;11.582;2023-02-24T07:33:42;19.00;41.90
41644;DHT22;44236;48.098;11.582;2023-02-24T07:36:11;19.10;41.90
41644;DHT22;44236;48.098;11.582;2023-02-24T07:38:43;19.20;41.90
41644;DHT22;44236;48.098;11.582;2023-02-24T07:41:11;19.30;42.00
41644;DHT22;44236;48.098;11.582;2023-02-24T07:43:39;19.30;42.20
41644;DHT22;44236;48.098;11.582;2023-02-24T07:46:13;19.30;41.80
41644;DHT22;44236;48.098;11.582;2023-02-24T07:48:39;19.30;42.40
41644;DHT22;44236;48.098;11.582;2023-02-24T07:51:14;19.30;42.00
41644;DHT22;44236;48.098;11.582;2023-02-24T07:53:41;19.40;42.10
41644;DHT22;44236;48.098;11.582;2023-02-24T07:56:12;19.40;41.90
41644;DHT22;44236;48.098;11.582;2023-02-24T07:58:48;19.40;42.00
41644;DHT22;44236;48.098;11.582;2023-02-24T08:01:22;19.50;42.30
41644;DHT22;44236;48.098;11.582;2023-02-24T08:03:48;19.40;41.80
41644;DHT22;44236;48.098;11.582;2023-02-24T08:06:16;19.40;42.20
41644;DHT22;44236;48.098;11.582;2023-02-24T08:08:52;19.40;42.70
41644;DHT22;44236;48.098;11.582;2023-02-24T08:11:35;19.40;43.10
41644;DHT22;44236;48.098;11.582;2023-02-24T08:14:04;19.40;43.70
41644;DHT22;44236;48.098;11.582;2023-02-24T08:16:39;19.40;43.80
41644;DHT22;44236;48.098;11.582;2023-02-24T08:19:10;19.40;43.90
41644;DHT22;44236;48.098;11.582;2023-02-24T08:21:41;19.30;44.00
41644;DHT22;44236;48.098;11.582;2023-02-24T08:24:16;19.30;44.00
41644;DHT22;44236;48.098;11.582;2023-02-24T08:26:50;19.30;43.90
41644;DHT22;44236;48.098;11.582;2023-02-24T08:29:34;19.30;44.10
41644;DHT22;44236;48.098;11.582;2023-02-24T08:32:30;19.30;43.80
41644;DHT22;44236;48.098;11.582;2023-02-24T08:37:33;19.30;43.80
41644;DHT22;44236;48.098;11.582;2023-02-24T08:40:09;19.30;43.80
41644;DHT22;44236;48.098;11.582;2023-02-24T08:43:10;19.30;43.80
41644;DHT22;44236;48.098;11.582;2023-02-24T08:45:47;19.30;43.70
41644;DHT22;44236;48.098;11.582;2023-02-24T08:48:19;19.20;43.60
41644;DHT22;44236;48.098;11.582;2023-02-24T08:50:55;19.30;43.60
41644;DHT22;44236;48.098;11.582;2023-02-24T08:53:22;19.30;44.00
41644;DHT22;44236;48.098;11.582;2023-02-24T08:55:53;19.20;43.60
41644;DHT22;44236;48.098;11.582;2023-02-24T08:58:20;19.20;43.40
41644;DHT22;44236;48.098;11.582;2023-02-24T09:00:55;19.20;43.30
41644;DHT22;44236;48.098;11.582;2023-02-24T09:03:25;19.20;43.30
41644;DHT22;44236;48.098;11.582;2023-02-24T09:06:05;19.20;43.40
41644;DHT22;44236;48.098;11.582;2023-02-24T09:08:35;19.30;43.40
41644;DHT22;44236;48.098;11.582;2023-02-24T09:11:05;19.30;43.30
41644;DHT22;44236;48.098;11.582;2023-02-24T09:13:52;19.30;43.20
41644;DHT22;44236;48.098;11.582;2023-02-24T09:16:23;19.30;43.20
41644;DHT22;44236;48.098;11.582;2023-02-24T09:18:54;19.30;43.50
41644;DHT22;44236;48.098;11.582;2023-02-24T09:21:39;19.40;43.00
41644;DHT22;44236;48.098;11.582;2023-02-24T09:24:16;19.40;43.00
41644;DHT22;44236;48.098;11.582;2023-02-24T09:26:55;19.40;43.00
41644;DHT22;44236;48.098;11.582;2023-02-24T09:29:28;19.50;42.60
41644;DHT22;44236;48.098;11.582;2023-02-24T09:32:00;19.50;42.90
41644;DHT22;44236;48.098;11.582;2023-02-24T09:34:32;19.50;42.70
41644;DHT22;44236;48.098;11.582;2023-02-24T09:36:58;19.50;42.70
41644;DHT22;44236;48.098;11.582;2023-02-24T09:39:31;19.60;43.00
41644;DHT22;44236;48.098;11.582;2023-02-24T09:42:22;19.50;42.80
41644;DHT22;44236;48.098;11.582;2023-02-24T09:44:54;19.50;43.00
41644;DHT22;44236;48.098;11.582;2023-02-24T09:47:45;19.50;43.00
41644;DHT22;44236;48.098;11.582;2023-02-24T09:52:49;19.60;43.00
41644;DHT22;44236;48.098;11.582;2023-02-24T09:55:22;19.60;43.20
41644;DHT22;44236;48.098;11.582;2023-02-24T09:58:11;19.60;43.20
41644;DHT22;44236;48.098;11.582;2023-02-24T10:00:57;19.60;43.20
41644;DHT22;44236;48.098;11.582;2023-02-24T10:03:26;19.60;43.30
41644;DHT22;44236;48.098;11.582;2023-02-24T10:06:20;19.60;43.20
41644;DHT22;44236;48.098;11.582;2023-02-24T10:08:58;19.60;43.40
41644;DHT22;44236;48.098;11.582;2023-02-24T10:11:40;19.40;42.80
41644;DHT22;44236;48.098;11.582;2023-02-24T10:14:26;19.10;43.00
41644;DHT22;44236;48.098;11.582;2023-02-24T10:16:55;18.90;43.30
41644;DHT22;44236;48.098;11.582;2023-02-24T10:19:40;18.70;43.50
41644;DHT22;44236;48.098;11.582;2023-02-24T10:22:14;18.70;43.70
41644;DHT22;44236;48.098;11.582;2023-02-24T10:25:04;18.70;43.80
41644;DHT22;44236;48.098;11.582;2023-02-24T10:33:20;18.70;43.90
41644;DHT22;44236;48.098;11.582;2023-02-24T10:35:50;18.70;43.80
41644;DHT22;44236;48.098;11.582;2023-02-24T10:38:16;18.70;43.80
41644;DHT22;44236;48.098;11.582;2023-02-24T10:40:52;18.70;43.70
41644;DHT22;44236;48.098;11.582;2023-02-24T10:43:24;18.80;43.40
41644;DHT22;44236;48.098;11.582;2023-02-24T10:45:55;18.80;43.40
41644;DHT22;44236;48.098;11.582;2023-02-24T10:48:32;18.90;43.30
41644;DHT22;44236;48.098;11.582;2023-02-24T10:51:11;18.90;43.10
41644;DHT22;44236;48.098;11.582;2023-02-24T10:53:48;18.90;43.00
41644;DHT22;44236;48.098;11.582;2023-02-24T10:56:32;18.80;43.10
41644;DHT22;44236;48.098;11.582;2023-02-24T10:59:11;18.80;43.20
41644;DHT22;44236;48.098;11.582;2023-02-24T11:01:54;18.80;43.20
41644;DHT22;44236;48.098;11.582;2023-02-24T11:04:33;18.80;43.20
41644;DHT22;44236;48.098;11.582;2023-02-24T11:07:20;18.70;43.20
41644;DHT22;44236;48.098;11.582;2023-02-24T11:10:01;18.70;43.20
41644;DHT22;44236;48.098;11.582;2023-02-24T11:12:41;18.80;43.20
41644;DHT22;44236;48.098;11.582;2023-02-24T11:16:02;18.70;43.30
41644;DHT22;44236;48.098;11.582;2023-02-24T11:18:45;18.70;43.30
41644;DHT22;44236;48.098;11.582;2023-02-24T11:21:15;18.80;43.20
41644;DHT22;44236;48.098;11.582;2023-02-24T11:23:44;18.80;43.10
41644;DHT22;44236;48.098;11.582;2023-02-24T11:26:33;18.80;43.00
41644;DHT22;44236;48.098;11.582;2023-02-24T11:29:41;18.90;43.00
41644;DHT22;44236;48.098;11.582;2023-02-24T11:32:27;18.90;43.00
41644;DHT22;44236;48.098;11.582;2023-02-24T11:37:38;19.00;42.90
41644;DHT22;44236;48.098;11.582;2023-02-24T11:45:34;19.20;42.90
41644;DHT22;44236;48.098;11.582;2023-02-24T11:48:04;19.20;42.70
41644;DHT22;44236;48.098;11.582;2023-02-24T11:51:02;19.30;42.70
41644;DHT22;44236;48.098;11.582;2023-02-24T11:53:56;19.30;42.90
41644;DHT22;44236;48.098;11.582;2023-02-24T11:56:53;19.30;42.90
41644;DHT22;44236;48.098;11.582;2023-02-24T12:02:02;19.30;43.00
41644;DHT22;44236;48.098;11.582;2023-02-24T12:07:41;19.30;43.00
41644;DHT22;44236;48.098;11.582;2023-02-24T12:12:43;19.40;43.30
41644;DHT22;44236;48.098;11.582;2023-02-24T12:15:21;19.40;43.00
41644;DHT22;44236;48.098;11.582;2023-02-24T12:18:12;19.40;42.90
41644;DHT22;44236;48.098;11.582;2023-02-24T12:20:49;19.40;42.90
41644;DHT22;44236;48.098;11.582;2023-02-24T12:23:35;19.40;43.00
41644;DHT22;44236;48.098;11.582;2023-02-24T12:40:34;19.50;43.10
41644;DHT22;44236;48.098;11.582;2023-02-24T12:51:37;19.50;43.10
41644;DHT22;44236;48.098;11.582;2023-02-24T12:59:35;19.60;43.20
41644;DHT22;44236;48.098;11.582;2023-02-24T13:13:36;19.60;43.00
41644;DHT22;44236;48.098;11.582;2023-02-24T13:16:04;19.60;43.30
41644;DHT22;44236;48.098;11.582;2023-02-24T13:18:35;19.60;43.20
41644;DHT22;44236;48.098;11.582;2023-02-24T13:21:05;19.60;43.20
41644;DHT22;44236;48.098;11.582;2023-02-24T13:23:32;19.60;43.30
41644;DHT22;44236;48.098;11.582;2023-02-24T13:25:58;19.60;43.30
41644;DHT22;44236;48.098;11.582;2023-02-24T13:28:30;19.60;43.30
41644;DHT22;44236;48.098;11.582;2023-02-24T13:31:11;19.60;43.20
41644;DHT22;44236;48.098;11.582;2023-02-24T13:33:41;19.70;43.30
41644;DHT22;44236;48.098;11.582;2023-02-24T13:36:19;19.70;43.40
41644;DHT22;44236;48.098;11.582;2023-02-24T13:38:51;19.70;43.40
41644;DHT22;44236;48.098;11.582;2023-02-24T13:43:58;19.70;43.30
41644;DHT22;44236;48.098;11.582;2023-02-24T13:46:27;19.70;43.30
41644;DHT22;44236;48.098;11.582;2023-02-24T13:49:02;19.70;43.30
41644;DHT22;44236;48.098;11.582;2023-02-24T14:02:38;19.20;43.30
41644;DHT22;44236;48.098;11.582;2023-02-24T14:05:10;19.20;43.80
41644;DHT22;44236;48.098;11.582;2023-02-24T14:07:41;19.20;43.70
41644;DHT22;44236;48.098;11.582;2023-02-24T14:10:30;19.30;43.70
41644;DHT22;44236;48.098;11.582;2023-02-24T14:13:14;19.40;43.70
41644;DHT22;44236;48.098;11.582;2023-02-24T14:15:42;19.40;43.50
41644;DHT22;44236;48.098;11.582;2023-02-24T14:18:17;19.50;43.50
41644;DHT22;44236;48.098;11.582;2023-02-24T14:20:43;19.50;43.40
41644;DHT22;44236;48.098;11.582;2023-02-24T14:26:07;19.60;43.30
41644;DHT22;44236;48.098;11.582;2023-02-24T14:28:38;19.60;43.30
41644;DHT22;44236;48.098;11.582;2023-02-24T14:31:13;19.60;43.40
41644;DHT22;44236;48.098;11.582;2023-02-24T14:33:41;19.60;43.40
41644;DHT22;44236;48.098;11.582;2023-02-24T14:36:16;19.60;43.50
41644;DHT22;44236;48.098;11.582;2023-02-24T14:38:43;19.60;43.50
41644;DHT22;44236;48.098;11.582;2023-02-24T14:41:23;19.60;43.50
41644;DHT22;44236;48.098;11.582;2023-02-24T14:43:50;19.70;43.30
41644;DHT22;44236;48.098;11.582;2023-02-24T14:46:16;19.70;43.50
41644;DHT22;44236;48.098;11.582;2023-02-24T14:48:43;19.70;43.60
41644;DHT22;44236;48.098;11.582;2023-02-24T14:51:22;19.60;44.60
41644;DHT22;44236;48.098;11.582;2023-02-24T14:53:51;19.20;45.50
41644;DHT22;44236;48.098;11.582;2023-02-24T14:56:18;18.90;46.50
41644;DHT22;44236;48.098;11.582;2023-02-24T14:58:48;18.60;47.10
41644;DHT22;44236;48.098;11.582;2023-02-24T15:01:26;18.50;48.00
41644;DHT22;44236;48.098;11.582;2023-02-24T15:03:56;18.30;48.50
41644;DHT22;44236;48.098;11.582;2023-02-24T15:06:27;18.30;48.80
41644;DHT22;44236;48.098;11.582;2023-02-24T15:09:00;18.10;48.80
41644;DHT22;44236;48.098;11.582;2023-02-24T15:11:30;18.00;49.30
41644;DHT22;44236;48.098;11.582;2023-02-24T15:14:03;17.90;49.60
41644;DHT22;44236;48.098;11.582;2023-02-24T15:16:37;17.90;49.90
41644;DHT22;44236;48.098;11.582;2023-02-24T15:19:16;18.10;48.80
41644;DHT22;44236;48.098;11.582;2023-02-24T15:21:46;18.50;47.50
41644;DHT22;44236;48.098;11.582;2023-02-24T15:24:30;18.70;46.40
41644;DHT22;44236;48.098;11.582;2023-02-24T15:27:17;18.90;45.90
41644;DHT22;44236;48.098;11.582;2023-02-24T15:29:44;19.10;46.20
41644;DHT22;44236;48.098;11.582;2023-02-24T15:32:26;19.20;45.30
41644;DHT22;44236;48.098;11.582;2023-02-24T15:34:52;19.30;45.00
41644;DHT22;44236;48.098;11.582;2023-02-24T15:37:24;19.40;45.50
41644;DHT22;44236;48.098;11.582;2023-02-24T15:39:52;19.40;45.90
41644;DHT22;44236;48.098;11.582;2023-02-24T15:42:30;19.50;45.60
41644;DHT22;44236;48.098;11.582;2023-02-24T15:45:03;19.50;45.30
41644;DHT22;44236;48.098;11.582;2023-02-24T15:47:40;19.60;45.50
41644;DHT22;44236;48.098;11.582;2023-02-24T15:50:06;19.70;45.20
41644;DHT22;44236;48.098;11.582;2023-02-24T15:52:32;19.70;45.20
41644;DHT22;44236;48.098;11.582;2023-02-24T15:54:58;19.80;45.10
41644;DHT22;44236;48.098;11.582;2023-02-24T15:57:28;19.80;44.90
41644;DHT22;44236;48.098;11.582;2023-02-24T15:59:54;19.90;45.00
41644;DHT22;44236;48.098;11.582;2023-02-24T16:02:21;20.00;45.00
41644;DHT22;44236;48.098;11.582;2023-02-24T16:04:47;20.00;44.80
41644;DHT22;44236;48.098;11.582;2023-02-24T16:07:19;20.00;44.70
41644;DHT22;44236;48.098;11.582;2023-02-24T16:09:46;20.10;44.70
41644;DHT22;44236;48.098;11.582;2023-02-24T16:12:18;20.10;44.40
41644;DHT22;44236;48.098;11.582;2023-02-24T16:14:45;20.20;44.50
41644;DHT22;44236;48.098;11.582;2023-02-24T16:17:34;20.30;44.50
41644;DHT22;44236;48.098;11.582;2023-02-24T16:20:01;20.30;44.70
41644;DHT22;44236;48.098;11.582;2023-02-24T16:22:32;20.30;44.80
41644;DHT22;44236;48.098;11.582;2023-02-24T16:24:58;20.40;44.80
41644;DHT22;44236;48.098;11.582;2023-02-24T16:27:24;20.40;44.90
41644;DHT22;44236;48.098;11.582;2023-02-24T16:29:51;20.40;44.70
41644;DHT22;44236;48.098;11.582;2023-02-24T16:32:18;20.50;44.90
41644;DHT22;44236;48.098;11.582;2023-02-24T16:34:46;20.50;45.30
41644;DHT22;44236;48.098;11.582;2023-02-24T16:37:20;20.50;44.70
41644;DHT22;44236;48.098;11.582;2023-02-24T16:39:46;20.60;44.70
41644;DHT22;44236;48.098;11.582;2023-02-24T16:42:15;20.60;45.00
41644;DHT22;44236;48.098;11.582;2023-02-24T16:44:41;20.70;44.70
41644;DHT22;44236;48.098;11.582;2023-02-24T16:47:07;20.70;44.60
41644;DHT22;44236;48.098;11.582;2023-02-24T16:49:37;20.70;44.60
41644;DHT22;44236;48.098;11.582;2023-02-24T16:52:02;20.70;44.70
41644;DHT22;44236;48.098;11.582;2023-02-24T16:54:28;20.70;44.70
41644;DHT22;44236;48.098;11.582;2023-02-24T16:56:55;20.80;44.60
41644;DHT22;44236;48.098;11.582;2023-02-24T16:59:21;20.80;45.00
41644;DHT22;44236;48.098;11.582;2023-02-24T17:01:46;20.80;44.90
41644;DHT22;44236;48.098;11.582;2023-02-24T17:04:12;20.80;45.00
41644;DHT22;44236;48.098;11.582;2023-02-24T17:06:39;20.80;44.90
41644;DHT22;44236;48.098;11.582;2023-02-24T17:09:05;20.80;44.70
41644;DHT22;44236;48.098;11.582;2023-02-24T17:11:31;20.90;45.10
41644;DHT22;44236;48.098;11.582;2023-02-24T17:13:57;20.90;44.70
41644;DHT22;44236;48.098;11.582;2023-02-24T17:16:23;20.90;44.70
41644;DHT22;44236;48.098;11.582;2023-02-24T17:18:48;20.90;45.00
41644;DHT22;44236;48.098;11.582;2023-02-24T17:21:14;21.00;44.80
41644;DHT22;44236;48.098;11.582;2023-02-24T17:23:41;21.00;44.60
41644;DHT22;44236;48.098;11.582;2023-02-24T17:26:12;21.00;44.60
41644;DHT22;44236;48.098;11.582;2023-02-24T17:28:39;21.10;44.50
41644;DHT22;44236;48.098;11.582;2023-02-24T17:31:04;21.10;44.60
41644;DHT22;44236;48.098;11.582;2023-02-24T17:33:34;21.10;44.50
41644;DHT22;44236;48.098;11.582;2023-02-24T17:36:00;21.10;44.40
41644;DHT22;44236;48.098;11.582;2023-02-24T17:38:26;21.10;44.30
41644;DHT22;44236;48.098;11.582;2023-02-24T17:40:52;21.10;44.10
41644;DHT22;44236;48.098;11.582;2023-02-24T17:43:19;21.10;44.10
41644;DHT22;44236;48.098;11.582;2023-02-24T17:45:46;21.10;44.20
41644;DHT22;44236;48.098;11.582;2023-02-24T17:48:13;21.10;44.30